BEACH RACE DE LA BAIE DE WISSANT 2019

Epreuve sélectionnée:


LD - 50km - Résultats Scratch

Filtre:

Partants Général Top 5



Recherche:

N° dossard
Nom
Club
LD - 50km - Classement arrivée
Clt Athlète Nat. Club Temps Sexe Cat Arrivée Lap1 Lap2 Lap3
1 97 VANTORNOUT Klaas LAREMANS EDNINE 01:41:45 M (1e) Master (1e) 01:41:45 (1e) 00:26:03 (2e) 00:50:18 (1e) 01:15:46 (2e) Partagez votre performance
2 1 LEROUX Samuel UVC CALAIS 01:41:57 M (2e) Senior (1e) 01:41:57 (2e) 00:26:03 (1e) 00:50:18 (2e) 01:15:46 (1e) Partagez votre performance
3 40 DEFREYNE Cédric MOEDER LAMBIK BEACHRACETEAM 01:43:55 M (3e) Senior (2e) 01:43:55 (3e) 00:26:13 (4e) 00:51:09 (5e) 01:17:01 (5e) Partagez votre performance
4 116 VAN ZANDBEEK Ronan TEAM INVICTA 01:43:55 M (4e) Master (2e) 01:43:55 (4e) 00:26:14 (5e) 00:51:08 (3e) 01:17:01 (4e) Partagez votre performance
5 95 D'HOORE Giorgio LAREMANS EDNINE 01:44:00 M (5e) Senior (3e) 01:44:00 (5e) 00:26:03 (3e) 00:51:08 (4e) 01:16:59 (3e) Partagez votre performance
6 103 VLAEMINCK?? Nike RUN AND CYCLE TEAM 01:44:06 M (6e) Master (3e) 01:44:06 (6e) 00:26:14 (6e) 00:51:09 (6e) 01:17:01 (6e) Partagez votre performance
7 99 GHYLLEBERT Pieter LAREMANS EDNINE 01:45:16 M (7e) Master (4e) 01:45:16 (7e) 00:26:28 (9e) 00:52:11 (11e) 01:18:34 (7e) Partagez votre performance
8 118 NIEUWKOOP Basile TEAM INVICTA 01:45:24 M (8e) Senior (4e) 01:45:24 (8e) 00:26:38 (12e) 00:52:10 (8e) 01:18:35 (10e) Partagez votre performance
9 24 JONCKHEERE Michael MOEDER LAMBIK BEACHRACETEAM 01:45:42 M (9e) Senior (5e) 01:45:42 (9e) 00:26:31 (11e) 00:52:11 (10e) 01:18:34 (8e) Partagez votre performance
10 35 VANDEN BON Jurgen BEACHBIKERS 01:46:38 M (10e) Master (5e) 01:46:38 (10e) 00:26:28 (8e) 00:52:18 (13e) 01:18:35 (9e) Partagez votre performance
11 51 DESCHEEMAEKER Steven VIND CYCLING PROJECT 01:46:45 M (11e) Master (6e) 01:46:45 (11e) 00:26:54 (21e) 00:52:18 (15e) 01:19:41 (11e) Partagez votre performance
12 76 DELALEAU Alexis OGS CYCLISME 01:46:45 M (12e) Senior (6e) 01:46:45 (12e) 00:26:15 (7e) 00:52:19 (16e) 01:19:42 (13e) Partagez votre performance
13 90 MAARTEN Himpens MOEDER LAMBIK BEACHRACETEAM 01:47:02 M (13e) Master (7e) 01:47:02 (13e) 00:26:28 (10e) 00:52:10 (9e) 01:19:42 (12e) Partagez votre performance
14 25 DOURLENS Charles antoine DUNKERQUE COFIDIS TEAM 01:47:21 M (14e) Senior (7e) 01:47:21 (14e) 00:26:42 (17e) 00:52:20 (17e) 01:19:43 (14e) Partagez votre performance
15 69 RONDELEZ Björn BEACHBIKERS 01:47:44 M (15e) Master (8e) 01:47:44 (15e) 00:26:39 (13e) 00:52:18 (14e) 01:19:46 (15e) Partagez votre performance
16 68 RAMON Lucien O MAX TEAM 01:48:39 M (16e) Cadet-Junior (1e) 01:48:39 (16e) 00:26:41 (16e) 00:52:42 (20e) 01:20:14 (18e) Partagez votre performance
17 29 RINGOT Romain TAC CYCLISME 01:48:39 M (17e) Master (9e) 01:48:39 (17e) 00:26:48 (19e) 00:52:41 (19e) 01:20:13 (17e) Partagez votre performance
18 47 HUYGHE Peter CARROSSERIE DEKEYZER 01:48:47 M (18e) Master (10e) 01:48:47 (18e) 00:26:40 (14e) 00:52:11 (12e) 01:19:46 (16e) Partagez votre performance
19 114 TYTECA Koen KOEN TYTECA 01:50:10 M (19e) Master (11e) 01:50:10 (19e) 00:27:55 (42e) 00:55:04 (34e) 01:22:56 (28e) Partagez votre performance
20 86 DECLEIR Gianni 01:50:12 M (20e) Senior (8e) 01:50:12 (20e) 00:27:10 (23e) 00:54:35 (24e) 01:22:53 (24e) Partagez votre performance
21 60 RICOUART Gérard OGS CYCLISME 01:50:14 M (21e) Master (12e) 01:50:14 (21e) 00:27:18 (27e) 00:54:23 (23e) 01:22:57 (29e) Partagez votre performance
22 52 CAPOEN Mehdy WCT DE BERGHAZEN 01:50:30 M (22e) Master (13e) 01:50:30 (22e) 00:26:57 (22e) 00:54:16 (22e) 01:22:48 (23e) Partagez votre performance
23 120 OPSOMER RH 01:50:31 M (23e) Master (14e) 01:50:31 (23e) 00:27:41 (33e) 00:54:41 (26e) 01:22:59 (30e) Partagez votre performance
24 106 DELALEAU Antoine OGS CYCLISME 01:50:39 M (24e) Senior (9e) 01:50:39 (24e) 00:26:52 (20e) 00:52:26 (18e) 01:22:37 (22e) Partagez votre performance
25 53 DEVOLDER Frederik VIND CYCLING PROJECT 01:50:49 M (25e) Master (15e) 01:50:49 (25e) 00:27:14 (25e) 00:54:05 (21e) 01:22:31 (19e) Partagez votre performance
26 121 LUYSSEN GREG 01:51:06 M (26e) Senior (10e) 01:51:06 (26e) 00:27:52 (39e) 00:54:41 (25e) 01:22:36 (21e) Partagez votre performance
27 64 LEVASSEUR Nicolas ES ARQUES 01:51:28 M (27e) Senior (11e) 01:51:28 (27e) 00:27:33 (32e) 00:54:55 (30e) 01:22:32 (20e) Partagez votre performance
28 124 DUTOO Jeremy 01:51:37 M (28e) Senior (12e) 01:51:37 (28e) 00:27:52 (40e) 00:54:56 (31e) 01:22:53 (25e) Partagez votre performance
29 102 VERBEKE Grace LAREMANS EDNINE 01:51:52 F (1e) Master (1e) 01:51:52 (29e) 00:27:21 (30e) 00:54:54 (29e) 01:22:55 (27e) Partagez votre performance
30 28 DECAESTEKER Frederik LAREMANS EDNINE 01:52:04 M (29e) Master (16e) 01:52:04 (30e) 00:26:44 (18e) 00:54:54 (28e) 01:22:55 (26e) Partagez votre performance
31 122 GENGYN Styn 01:52:48 M (30e) Master (17e) 01:52:48 (31e) 00:27:46 (36e) 00:55:01 (32e) 01:23:50 (31e) Partagez votre performance
32 31 DION Damien ARDENNE GAUME 01:52:55 M (31e) Senior (13e) 01:52:55 (32e) 00:27:14 (26e) 00:55:03 (33e) 01:24:05 (32e) Partagez votre performance
33 42 MIEZE Sebastien EC HERMELINGHEM 01:53:42 M (32e) Master (18e) 01:53:42 (33e) 00:27:43 (34e) 00:54:52 (27e) 01:24:06 (33e) Partagez votre performance
34 107 VERHENNE Benjamin TAC CYCLISME 01:55:13 M (33e) Master (19e) 01:55:13 (34e) 00:28:02 (44e) 00:55:57 (36e) 01:25:16 (35e) Partagez votre performance
35 98 RECOUR Filip LAREMANS EDNINE 01:55:18 M (34e) Master (20e) 01:55:18 (35e) 00:27:55 (41e) 00:56:00 (37e) 01:25:16 (34e) Partagez votre performance
36 105 VAN HOUTUM Celine TEAM INVICTA 01:56:11 F (2e) Senior (1e) 01:56:11 (36e) 00:28:32 (49e) 00:56:51 (45e) 01:25:40 (38e) Partagez votre performance
37 115 VAN ZANDBEEK Sjors TEAM INVICTA 01:56:30 M (35e) Senior (14e) 01:56:30 (37e) 00:28:32 (47e) 00:56:51 (46e) 01:25:40 (39e) Partagez votre performance
38 8 TANDART David TEAM FLIXECOURT 01:56:40 M (36e) Master (21e) 01:56:40 (38e) 00:27:21 (31e) 00:56:02 (40e) 01:25:40 (40e) Partagez votre performance
39 34 AMEELE Nico 01:56:41 M (37e) Master (22e) 01:56:41 (39e) 00:27:20 (29e) 00:55:13 (35e) 01:25:41 (42e) Partagez votre performance
40 33 POCHET Fabien CC ARDRES 01:57:26 M (38e) Master (23e) 01:57:26 (40e) 00:27:51 (38e) 00:56:04 (41e) 01:25:41 (41e) Partagez votre performance
41 104 VANROLLEGHEM Kris RUN AND CYCLE TEAM 01:57:36 M (39e) Master (24e) 01:57:36 (41e) 00:28:32 (50e) 00:56:51 (47e) 01:27:35 (46e) Partagez votre performance
42 65 MEYERS Laurane LA VOGE VTT 01:57:37 F (3e) Senior (2e) 01:57:37 (42e) 00:27:51 (37e) 00:56:42 (43e) 01:27:35 (45e) Partagez votre performance
43 23 VERHAEGHE Bruno VERHAEGHEPASCUAL 01:57:42 M (40e) Master (25e) 01:57:42 (43e) 00:27:59 (43e) 00:56:08 (42e) 01:27:35 (44e) Partagez votre performance
44 18 BIERNACKI Alexandre MAGIE CREME 01:57:45 M (41e) Master (26e) 01:57:45 (44e) 00:28:32 (48e) 00:56:58 (49e) 01:27:34 (43e) Partagez votre performance
45 91 DUFOUR Olivier DECOBIKE 01:58:08 M (42e) Master (27e) 01:58:08 (45e) 00:28:07 (46e) 00:57:02 (50e) 01:27:38 (47e) Partagez votre performance
46 74 BRUYNOOGHE Niels WTC DE CRELANSPURTERS 01:59:28 M (43e) Senior (15e) 01:59:28 (46e) 00:28:02 (45e) 00:56:01 (39e) 01:25:17 (37e) Partagez votre performance
47 57 HENEAU Bruno TAC CYCLISME 02:00:13 M (44e) Master (28e) 02:00:13 (47e) 00:30:00 (59e) 00:59:03 (53e) 01:29:48 (48e) Partagez votre performance
48 20 LE ROUX Sébastien US COUDEKERQUE CYCLISME 02:00:23 M (45e) Master (29e) 02:00:23 (48e) 00:28:35 (52e) 00:59:02 (52e) 01:29:59 (50e) Partagez votre performance
49 83 POCHET Charles DREAM RIDERS 02:00:24 M (46e) Senior (16e) 02:00:24 (49e) 00:28:54 (54e) 00:59:16 (57e) 01:30:01 (52e) Partagez votre performance
50 123 VLAEMINCK1 Kurt 02:00:43 M (47e) Master (30e) 02:00:43 (50e) 00:28:49 (53e) 00:59:00 (51e) 01:30:00 (51e) Partagez votre performance
51 3 PASCUAL Nicolas DE LUSTIGE TOERISTEN 02:01:08 M (48e) Master (31e) 02:01:08 (51e) 00:28:32 (51e) 00:56:57 (48e) 01:29:58 (49e) Partagez votre performance
52 43 ROY Simon 9@thetree 02:01:49 M (49e) Master (32e) 02:01:49 (52e) 00:30:37 (74e) 01:00:26 (62e) 01:31:55 (56e) Partagez votre performance
53 67 FRERE Guillaume TAC CYCLISME 02:01:50 M (50e) Master (33e) 02:01:50 (53e) 00:30:18 (66e) 01:00:00 (59e) 01:31:53 (55e) Partagez votre performance
54 36 LEROUX David CC BRIMEUX 02:02:01 M